Nearby METAR Reports

 

KDAA - Fort Belvoir/Dav, Virginia, USA
Distance from station: SE 9mi, 15km
Updated: Mon, 22-Apr-2024 12:55pm EDT
Clear
Clear
 Wind from NW
Wind: NW 9 mph , 15 km/h
Temperature: 59°F , 15°C
Dew Point: 27°F , -3°C
Humidity: 29%
Barometer: 30.13 inHg , 1020.3 hPa
Clouds: Clear
Visibility: 10 miles , 16 km
2024/04/22 16:55 KDAA 221655Z AUTO 31008KT 10SM CLR 15/M03 A3013 RMK AO2 SLP206 T01541030 $
KIAD - Wash Dc/Dulles, Virginia, USA
Distance from station: NW 12mi, 19km
Updated: Mon, 22-Apr-2024 12:52pm EDT
Few Clouds
Few Clouds
 Wind from NW
Wind: NW 10 mph , 17 km/h, Gust: 17 mph , 28 km/h
Temperature: 61°F , 16°C
Dew Point: 28°F , -2°C
Humidity: 29%
Barometer: 30.14 inHg , 1020.7 hPa
Clouds: Few Clouds
Visibility: 10 miles , 16 km
Cloud details: Few Clouds 5000 ft
2024/04/22 16:52 KIAD 221652Z 31009G15KT 10SM FEW050 16/M02 A3014 RMK AO2 SLP208 T01561017
 
KHEF - Manassas Muni, Virginia, USA
Distance from station: WSW 14mi, 22km
Updated: Mon, 22-Apr-2024 12:56pm EDT
Few Clouds
Few Clouds
 Wind from varies
Wind: varies 6 mph , 9 km/h
Temperature: 59°F , 15°C
Dew Point: 27°F , -3°C
Humidity: 29%
Barometer: 30.15 inHg , 1021 hPa
Clouds: Few Clouds
Visibility: 10 miles , 16 km
Cloud details: Few Clouds 7000 ft
2024/04/22 16:56 KHEF 221656Z VRB05KT 10SM FEW070 15/M03 A3015 RMK AO2 SLP217 T01501033
KDCA - Washington/Natl, Washington D.c., USA
Distance from station: ENE 14mi, 23km
Updated: Mon, 22-Apr-2024 12:52pm EDT
Partly cloudy
Partly cloudy
 Wind from varies
Wind: varies 6 mph , 9 km/h, Gust: 17 mph , 28 km/h
Temperature: 59°F , 15°C
Dew Point: 28°F , -2°C
Humidity: 31%
Barometer: 30.14 inHg , 1020.7 hPa
Clouds: Partly cloudy
Visibility: 10 miles , 16 km
Cloud details: Partly cloudy 7000 ft
2024/04/22 16:52 KDCA 221652Z VRB05G15KT 10SM SCT070 15/M02 A3014 RMK AO2 SLP206 T01501022
 
KNYG - Quantico Mcaf, Virginia, USA
Distance from station: S 21mi, 34km
Updated: Mon, 22-Apr-2024 12:56pm EDT
Few Clouds
Few Clouds
 Wind from E
Wind: E 7 mph , 11 km/h
Temperature: 57°F , 14°C
Dew Point: 30°F , -1°C
Humidity: 36%
Barometer: 30.16 inHg , 1021.3 hPa
Clouds: Few Clouds
Visibility: 10 miles , 16 km
Cloud details: Few Clouds 7000 ft
2024/04/22 16:56 KNYG 221656Z 08006KT 10SM FEW070 14/M01 A3016 RMK AO2 SLP213 T01441006 $
KADW - Andrews Afb, Maryland, USA
Distance from station: E 23mi, 37km
Updated: Mon, 22-Apr-2024 12:55pm EDT
Few Clouds
Few Clouds
 Wind from NNE
Wind: NNE 5 mph , 7 km/h
Temperature: 57°F , 14°C
Dew Point: 27°F , -3°C
Humidity: 31%
Barometer: 30.11 inHg , 1019.6 hPa
Clouds: Few Clouds
Visibility: 10 miles , 16 km
Cloud details: Few Clouds 16000 ft
2024/04/22 16:55 KADW 221655Z AUTO 02004KT 10SM FEW160 14/M03 A3011 RMK AO2 SLP204 T01401029 $
 
KJYO - Leesburg/Godfrey, Virginia, USA
Distance from station: NW 23mi, 37km
Updated: Mon, 22-Apr-2024 12:55pm EDT
Partly cloudy
Partly cloudy
 Wind from NW
Wind: NW 10 mph , 17 km/h
Temperature: 57°F , 14°C
Dew Point: 34°F , 1°C
Humidity: 41%
Barometer: 30.15 inHg , 1021 hPa
Clouds: Partly cloudy
Visibility: 10 miles , 16 km
Cloud details: Partly cloudy 6000 ft
2024/04/22 16:55 KJYO 221655Z AUTO 32009KT 10SM SCT060 14/01 A3015 RMK AO2
KCGS - College Park, Maryland, USA
Distance from station: ENE 24mi, 38km
Updated: Mon, 22-Apr-2024 1:00pm EDT
Partly cloudy
Partly cloudy
 Wind from N
Wind: N 12 mph , 19 km/h, Gust: 16 mph , 26 km/h
Temperature: 59°F , 15°C
Dew Point: 28°F , -2°C
Humidity: 31%
Barometer: 30.14 inHg , 1020.7 hPa
Clouds: Partly cloudy
Visibility: 10 miles , 16 km
Cloud details: Partly cloudy 7000 ft
2024/04/22 17:00 KCGS 221700Z AUTO 01010G14KT 10SM SCT070 15/M02 A3014 RMK AO2 T01491019
 
KGAI - Gaithersburg, Maryland, USA
Distance from station: NNE 26mi, 41km
Updated: Mon, 22-Apr-2024 12:56pm EDT
Clear
Clear
 Wind from NW
Wind: NW 8 mph , 13 km/h
Temperature: 57°F , 14°C
Dew Point: 30°F , -1°C
Humidity: 36%
Barometer: 30.14 inHg , 1020.7 hPa
Clouds: Clear
Visibility: 10 miles , 16 km
2024/04/22 16:56 KGAI 221656Z AUTO 31007KT 280V360 10SM CLR 14/M01 A3014 RMK AO2 SLP222 T01391011
KHWY - Warrenton, Virginia, USA
Distance from station: SW 28mi, 44km
Updated: Mon, 22-Apr-2024 12:55pm EDT
Partly cloudy
Partly cloudy
 Wind from calm
Wind: Calm
Temperature: 59°F , 15°C
Dew Point: 21°F , -6°C
Humidity: 23%
Barometer: 30.15 inHg , 1021 hPa
Clouds: Partly cloudy
Visibility: 10 miles , 16 km
Cloud details: Partly cloudy 6000 ft
2024/04/22 16:55 KHWY 221655Z AUTO 00000KT 10SM SCT060 15/M06 A3015 RMK AO2 T01531059
 
KRMN - Stafford Regnl, Virginia, USA
Distance from station: SSW 29mi, 47km
Updated: Mon, 22-Apr-2024 12:55pm EDT
Partly cloudy
Partly cloudy
 Wind from NNE
Wind: NNE 6 mph , 9 km/h
Temperature: 57°F , 14°C
Dew Point: 23°F , -5°C
Humidity: 27%
Barometer: 30.15 inHg , 1021 hPa
Clouds: Partly cloudy
Visibility: 10 miles , 16 km
Cloud details: Partly cloudy 7000 ft
2024/04/22 16:55 KRMN 221655Z AUTO 03005KT 10SM SCT070 14/M05 A3015 RMK AO2 T01411055
KFME - Fort Meade, Maryland, USA
Distance from station: NE 34mi, 55km
Updated: Mon, 22-Apr-2024 12:59pm EDT
Partly cloudy
Partly cloudy
 Wind from NNW
Wind: NNW 5 mph , 7 km/h
Temperature: 59°F , 15°C
Dew Point: 28°F , -2°C
Humidity: 31%
Barometer: 30.15 inHg , 1021 hPa
Clouds: Partly cloudy
Visibility: 10 miles , 16 km
Cloud details: Partly cloudy 7000 ft
2024/04/22 16:59 KFME 221659Z AUTO 33004KT 10SM SCT070 15/M02 A3015 RMK AO1
 
KCJR - Culpeper, Virginia, USA
Distance from station: WSW 36mi, 58km
Updated: Mon, 22-Apr-2024 12:55pm EDT
Partly cloudy
Partly cloudy
 Wind from calm
Wind: Calm
Temperature: 59°F , 15°C
Dew Point: 27°F , -3°C
Humidity: 29%
Barometer: 30.16 inHg , 1021.3 hPa
Clouds: Partly cloudy
Visibility: 10 miles , 16 km
Cloud details: Partly cloudy 6500 ft
2024/04/22 16:55 KCJR 221655Z AUTO 00000KT 10SM SCT065 15/M03 A3016 RMK AO2 T01451034
KEZF - Fredericksb/Shan, Virginia, USA
Distance from station: SSW 38mi, 62km
Updated: Mon, 22-Apr-2024 12:55pm EDT
Clear
Clear
 Wind from calm
Wind: Calm
Temperature: 57°F , 14°C
Dew Point: 28°F , -2°C
Humidity: 33%
Barometer: 30.14 inHg , 1020.7 hPa
Clouds: Clear
Visibility: 10 miles , 16 km
2024/04/22 16:55 KEZF 221655Z AUTO 00000KT 10SM CLR 14/M02 A3014 RMK AO2 T01381025
 
KBWI - Balto/Wash Intl, Maryland, USA
Distance from station: NE 41mi, 66km
Updated: Mon, 22-Apr-2024 12:54pm EDT
Few Clouds
Few Clouds
 Wind from WNW
Wind: WNW 6 mph , 9 km/h, Gust: 23 mph , 37 km/h
Temperature: 59°F , 15°C
Dew Point: 28°F , -2°C
Humidity: 31%
Barometer: 30.12 inHg , 1020 hPa
Clouds: Few Clouds
Visibility: 10 miles , 16 km
Cloud details: Few Clouds 6000 ft
2024/04/22 16:54 KBWI 221654Z 29005G20KT 10SM FEW060 15/M02 A3012 RMK AO2 SLP199 T01501022
KFDK - Frederick, Maryland, USA
Distance from station: N 42mi, 68km
Updated: Mon, 22-Apr-2024 12:47pm EDT
Clear
Clear
 Wind from NW
Wind: NW 9 mph , 15 km/h
Temperature: 61°F , 16°C
Dew Point: 28°F , -2°C
Humidity: 29%
Barometer: 30.14 inHg , 1020.7 hPa
Clouds: Clear
Visibility: 10 miles , 16 km
2024/04/22 16:47 KFDK 221647Z 32008KT 10SM CLR 16/M02 A3014
 
KNAK - Annapolis/Naval, Maryland, USA
Distance from station: ENE 45mi, 73km
Updated: Mon, 22-Apr-2024 12:54pm EDT
Clear
Clear
 Wind from varies
Wind: varies 6 mph , 9 km/h
Temperature: 57°F , 14°C
Dew Point: 36°F , 2°C
Humidity: 44%
Barometer: 30.13 inHg , 1020.3 hPa
Clouds: Clear
Visibility: 10 miles , 16 km
2024/04/22 16:54 KNAK 221654Z AUTO VRB05KT 10SM CLR 14/02 A3013 RMK AO2 SLP204 T01390017